sensor_id;sensor_type;location;lat;lon;timestamp;pressure;altitude;pressure_sealevel;temperature;humidity
49779;BME280;36217;60.232;24.776;2022-10-04T00:02:14;100132.62;;;6.71;71.62
49779;BME280;36217;60.232;24.776;2022-10-04T00:04:44;100126.43;;;6.80;71.15
49779;BME280;36217;60.232;24.776;2022-10-04T00:07:16;100126.64;;;6.72;71.38
49779;BME280;36217;60.232;24.776;2022-10-04T00:09:49;100125.82;;;6.96;70.92
49779;BME280;36217;60.232;24.776;2022-10-04T00:12:19;100127.24;;;6.88;70.50
49779;BME280;36217;60.232;24.776;2022-10-04T00:14:48;100113.81;;;6.85;71.34
49779;BME280;36217;60.232;24.776;2022-10-04T00:17:22;100116.78;;;7.03;70.62
49779;BME280;36217;60.232;24.776;2022-10-04T00:19:50;100123.98;;;6.98;70.36
49779;BME280;36217;60.232;24.776;2022-10-04T00:22:20;100106.59;;;7.17;70.57
49779;BME280;36217;60.232;24.776;2022-10-04T00:25:53;100101.47;;;6.81;70.14
49779;BME280;36217;60.232;24.776;2022-10-04T00:28:38;100106.94;;;6.99;70.22
49779;BME280;36217;60.232;24.776;2022-10-04T00:31:25;100096.12;;;7.35;69.83
49779;BME280;36217;60.232;24.776;2022-10-04T00:33:57;100106.96;;;7.04;70.00
49779;BME280;36217;60.232;24.776;2022-10-04T00:37:12;100094.08;;;7.12;69.55
49779;BME280;36217;60.232;24.776;2022-10-04T00:39:42;100089.73;;;6.92;69.94
49779;BME280;36217;60.232;24.776;2022-10-04T00:42:22;100097.94;;;6.81;70.36
49779;BME280;36217;60.232;24.776;2022-10-04T00:44:55;100096.32;;;7.21;69.67
49779;BME280;36217;60.232;24.776;2022-10-04T00:47:30;100095.24;;;7.12;69.84
49779;BME280;36217;60.232;24.776;2022-10-04T00:50:07;100100.50;;;7.11;69.02
49779;BME280;36217;60.232;24.776;2022-10-04T00:52:41;100100.82;;;7.03;69.19
49779;BME280;36217;60.232;24.776;2022-10-04T00:55:19;100097.74;;;7.26;69.13
49779;BME280;36217;60.232;24.776;2022-10-04T00:57:51;100095.01;;;6.70;69.20
49779;BME280;36217;60.232;24.776;2022-10-04T01:00:20;100085.37;;;6.73;69.60
49779;BME280;36217;60.232;24.776;2022-10-04T01:02:51;100091.33;;;6.48;70.40
49779;BME280;36217;60.232;24.776;2022-10-04T01:05:24;100082.74;;;6.81;69.37
49779;BME280;36217;60.232;24.776;2022-10-04T01:07:56;100084.25;;;7.03;69.36
49779;BME280;36217;60.232;24.776;2022-10-04T01:10:26;100105.12;;;6.48;70.02
49779;BME280;36217;60.232;24.776;2022-10-04T01:12:59;100077.49;;;6.97;69.08
49779;BME280;36217;60.232;24.776;2022-10-04T01:15:35;100088.40;;;6.42;69.91
49779;BME280;36217;60.232;24.776;2022-10-04T01:18:09;100085.71;;;7.01;68.82
49779;BME280;36217;60.232;24.776;2022-10-04T01:20:48;100081.03;;;6.79;68.70
49779;BME280;36217;60.232;24.776;2022-10-04T01:23:32;100078.88;;;6.91;68.91
49779;BME280;36217;60.232;24.776;2022-10-04T01:26:02;100081.59;;;6.46;69.60
49779;BME280;36217;60.232;24.776;2022-10-04T01:28:29;100077.15;;;7.09;68.26
49779;BME280;36217;60.232;24.776;2022-10-04T01:30:56;100087.95;;;7.05;68.36
49779;BME280;36217;60.232;24.776;2022-10-04T01:33:23;100072.10;;;6.47;69.11
49779;BME280;36217;60.232;24.776;2022-10-04T01:35:50;100069.21;;;6.64;68.71
49779;BME280;36217;60.232;24.776;2022-10-04T01:38:17;100068.99;;;7.13;67.94
49779;BME280;36217;60.232;24.776;2022-10-04T01:40:49;100068.10;;;7.18;67.62
49779;BME280;36217;60.232;24.776;2022-10-04T01:43:21;100072.34;;;6.94;68.24
49779;BME280;36217;60.232;24.776;2022-10-04T01:45:54;100076.26;;;6.13;70.06
49779;BME280;36217;60.232;24.776;2022-10-04T01:48:24;100069.16;;;6.44;69.01
49779;BME280;36217;60.232;24.776;2022-10-04T01:50:57;100073.89;;;6.75;68.16
49779;BME280;36217;60.232;24.776;2022-10-04T01:53:29;100073.99;;;6.88;68.42
49779;BME280;36217;60.232;24.776;2022-10-04T01:56:05;100069.99;;;6.67;68.38
49779;BME280;36217;60.232;24.776;2022-10-04T01:58:39;100076.52;;;7.07;67.86
49779;BME280;36217;60.232;24.776;2022-10-04T02:01:10;100080.04;;;6.10;69.75
49779;BME280;36217;60.232;24.776;2022-10-04T02:03:43;100077.54;;;6.89;68.41
49779;BME280;36217;60.232;24.776;2022-10-04T02:06:19;100074.81;;;6.86;68.54
49779;BME280;36217;60.232;24.776;2022-10-04T02:08:49;100077.66;;;6.67;69.31
49779;BME280;36217;60.232;24.776;2022-10-04T02:11:19;100070.53;;;6.52;69.60
49779;BME280;36217;60.232;24.776;2022-10-04T02:13:49;100081.79;;;6.39;70.10
49779;BME280;36217;60.232;24.776;2022-10-04T02:16:17;100072.51;;;6.31;70.22
49779;BME280;36217;60.232;24.776;2022-10-04T02:18:46;100085.92;;;6.65;69.30
49779;BME280;36217;60.232;24.776;2022-10-04T02:21:14;100064.42;;;6.84;68.73
49779;BME280;36217;60.232;24.776;2022-10-04T02:23:42;100069.27;;;6.75;68.90
49779;BME280;36217;60.232;24.776;2022-10-04T02:26:11;100072.15;;;6.60;69.34
49779;BME280;36217;60.232;24.776;2022-10-04T02:28:38;100073.14;;;6.56;69.46
49779;BME280;36217;60.232;24.776;2022-10-04T02:31:05;100078.62;;;6.69;69.16
49779;BME280;36217;60.232;24.776;2022-10-04T02:33:39;100080.42;;;6.56;69.68
49779;BME280;36217;60.232;24.776;2022-10-04T02:36:08;100077.61;;;6.68;69.17
49779;BME280;36217;60.232;24.776;2022-10-04T02:38:39;100077.37;;;6.71;68.80
49779;BME280;36217;60.232;24.776;2022-10-04T02:41:11;100077.63;;;6.06;70.61
49779;BME280;36217;60.232;24.776;2022-10-04T02:43:47;100077.11;;;6.38;69.79
49779;BME280;36217;60.232;24.776;2022-10-04T02:46:22;100071.75;;;6.44;69.62
49779;BME280;36217;60.232;24.776;2022-10-04T02:48:54;100077.56;;;6.76;68.64
49779;BME280;36217;60.232;24.776;2022-10-04T02:51:24;100076.70;;;6.86;68.29
49779;BME280;36217;60.232;24.776;2022-10-04T02:53:59;100069.94;;;6.80;68.29
49779;BME280;36217;60.232;24.776;2022-10-04T02:56:27;100075.26;;;6.51;68.53
49779;BME280;36217;60.232;24.776;2022-10-04T02:58:59;100077.10;;;6.59;68.23
49779;BME280;36217;60.232;24.776;2022-10-04T03:01:34;100078.97;;;6.75;68.19
49779;BME280;36217;60.232;24.776;2022-10-04T03:04:02;100073.53;;;6.43;68.36
49779;BME280;36217;60.232;24.776;2022-10-04T03:06:31;100070.43;;;6.79;68.07
49779;BME280;36217;60.232;24.776;2022-10-04T03:09:02;100080.69;;;6.43;68.40
49779;BME280;36217;60.232;24.776;2022-10-04T03:11:36;100082.06;;;6.03;70.17
49779;BME280;36217;60.232;24.776;2022-10-04T03:14:08;100079.95;;;6.52;68.91
49779;BME280;36217;60.232;24.776;2022-10-04T03:16:38;100083.10;;;6.25;68.84
49779;BME280;36217;60.232;24.776;2022-10-04T03:19:07;100080.57;;;6.47;68.91
49779;BME280;36217;60.232;24.776;2022-10-04T03:21:36;100082.64;;;6.92;67.64
49779;BME280;36217;60.232;24.776;2022-10-04T03:24:05;100088.15;;;6.90;67.57
49779;BME280;36217;60.232;24.776;2022-10-04T03:26:37;100092.38;;;6.85;67.70
49779;BME280;36217;60.232;24.776;2022-10-04T03:29:08;100092.18;;;6.40;68.37
49779;BME280;36217;60.232;24.776;2022-10-04T03:31:39;100099.44;;;6.86;67.91
49779;BME280;36217;60.232;24.776;2022-10-04T03:34:13;100094.72;;;6.80;67.95
49779;BME280;36217;60.232;24.776;2022-10-04T03:36:42;100097.85;;;6.79;67.99
49779;BME280;36217;60.232;24.776;2022-10-04T03:39:10;100109.07;;;6.55;67.96
49779;BME280;36217;60.232;24.776;2022-10-04T03:41:38;100104.43;;;6.11;69.39
49779;BME280;36217;60.232;24.776;2022-10-04T03:44:12;100102.27;;;6.46;68.76
49779;BME280;36217;60.232;24.776;2022-10-04T03:46:41;100101.44;;;6.40;68.87
49779;BME280;36217;60.232;24.776;2022-10-04T03:49:11;100104.47;;;6.59;68.43
49779;BME280;36217;60.232;24.776;2022-10-04T03:51:43;100107.45;;;6.32;69.35
49779;BME280;36217;60.232;24.776;2022-10-04T03:54:16;100102.38;;;6.34;69.34
49779;BME280;36217;60.232;24.776;2022-10-04T03:56:44;100105.91;;;6.40;69.27
49779;BME280;36217;60.232;24.776;2022-10-04T03:59:15;100104.28;;;6.55;68.75
49779;BME280;36217;60.232;24.776;2022-10-04T04:01:44;100097.25;;;6.38;69.06
49779;BME280;36217;60.232;24.776;2022-10-04T04:04:19;100097.50;;;6.53;68.78
49779;BME280;36217;60.232;24.776;2022-10-04T04:06:54;100087.95;;;6.45;68.45
49779;BME280;36217;60.232;24.776;2022-10-04T04:09:33;100093.44;;;6.69;68.47
49779;BME280;36217;60.232;24.776;2022-10-04T04:12:05;100089.46;;;6.64;67.87
49779;BME280;36217;60.232;24.776;2022-10-04T04:14:36;100088.41;;;6.56;67.49
49779;BME280;36217;60.232;24.776;2022-10-04T04:17:29;100094.73;;;6.69;68.55
49779;BME280;36217;60.232;24.776;2022-10-04T04:19:58;100093.81;;;6.70;68.52
49779;BME280;36217;60.232;24.776;2022-10-04T04:22:28;100087.72;;;7.00;67.60
49779;BME280;36217;60.232;24.776;2022-10-04T04:24:58;100094.70;;;6.93;67.76
49779;BME280;36217;60.232;24.776;2022-10-04T04:27:26;100096.90;;;6.73;67.65
49779;BME280;36217;60.232;24.776;2022-10-04T04:29:56;100097.01;;;6.73;67.81
49779;BME280;36217;60.232;24.776;2022-10-04T04:32:30;100096.03;;;6.77;68.55
49779;BME280;36217;60.232;24.776;2022-10-04T04:35:00;100093.70;;;6.45;68.20
49779;BME280;36217;60.232;24.776;2022-10-04T04:37:27;100094.11;;;6.81;67.89
49779;BME280;36217;60.232;24.776;2022-10-04T04:39:54;100095.98;;;6.66;68.94
49779;BME280;36217;60.232;24.776;2022-10-04T04:42:26;100103.50;;;6.81;68.77
49779;BME280;36217;60.232;24.776;2022-10-04T04:44:56;100088.89;;;6.83;68.53
49779;BME280;36217;60.232;24.776;2022-10-04T04:47:27;100101.89;;;6.69;68.92
49779;BME280;36217;60.232;24.776;2022-10-04T04:49:57;100094.52;;;6.77;68.77
49779;BME280;36217;60.232;24.776;2022-10-04T04:52:30;100101.07;;;6.50;69.11
49779;BME280;36217;60.232;24.776;2022-10-04T04:54:58;100103.49;;;6.29;69.86
49779;BME280;36217;60.232;24.776;2022-10-04T04:57:26;100100.50;;;6.67;69.49
49779;BME280;36217;60.232;24.776;2022-10-04T04:59:57;100102.82;;;6.45;70.13
49779;BME280;36217;60.232;24.776;2022-10-04T05:02:28;100089.09;;;6.77;69.33
49779;BME280;36217;60.232;24.776;2022-10-04T05:05:30;100102.32;;;6.57;69.33
49779;BME280;36217;60.232;24.776;2022-10-04T05:08:17;100105.50;;;6.68;69.09
49779;BME280;36217;60.232;24.776;2022-10-04T05:10:49;100099.65;;;6.92;68.52
49779;BME280;36217;60.232;24.776;2022-10-04T05:13:17;100107.04;;;6.62;69.60
49779;BME280;36217;60.232;24.776;2022-10-04T05:15:44;100098.05;;;6.93;69.23
49779;BME280;36217;60.232;24.776;2022-10-04T05:18:20;100098.32;;;6.48;69.25
49779;BME280;36217;60.232;24.776;2022-10-04T05:20:51;100106.36;;;6.77;69.26
49779;BME280;36217;60.232;24.776;2022-10-04T05:23:19;100105.75;;;6.81;69.09
49779;BME280;36217;60.232;24.776;2022-10-04T05:25:48;100103.76;;;7.02;69.17
49779;BME280;36217;60.232;24.776;2022-10-04T05:28:16;100108.81;;;6.73;69.42
49779;BME280;36217;60.232;24.776;2022-10-04T05:30:49;100106.13;;;6.82;69.86
49779;BME280;36217;60.232;24.776;2022-10-04T05:33:23;100113.21;;;6.79;70.25
49779;BME280;36217;60.232;24.776;2022-10-04T05:36:08;100106.35;;;6.89;69.21
49779;BME280;36217;60.232;24.776;2022-10-04T05:38:50;100122.35;;;6.39;71.30
49779;BME280;36217;60.232;24.776;2022-10-04T05:41:24;100122.54;;;6.21;70.97
49779;BME280;36217;60.232;24.776;2022-10-04T05:43:55;100114.89;;;6.61;69.57
49779;BME280;36217;60.232;24.776;2022-10-04T05:46:24;100122.90;;;6.69;69.95
49779;BME280;36217;60.232;24.776;2022-10-04T05:48:55;100119.30;;;6.82;69.02
49779;BME280;36217;60.232;24.776;2022-10-04T05:51:27;100119.66;;;7.11;69.43
49779;BME280;36217;60.232;24.776;2022-10-04T05:53:56;100131.88;;;6.81;69.65
49779;BME280;36217;60.232;24.776;2022-10-04T05:56:41;100140.90;;;6.87;69.53
49779;BME280;36217;60.232;24.776;2022-10-04T05:59:27;100135.84;;;6.75;69.32
49779;BME280;36217;60.232;24.776;2022-10-04T06:02:04;100138.26;;;7.39;68.66
49779;BME280;36217;60.232;24.776;2022-10-04T06:04:47;100137.64;;;7.11;68.97
49779;BME280;36217;60.232;24.776;2022-10-04T06:07:23;100139.51;;;7.01;68.62
49779;BME280;36217;60.232;24.776;2022-10-04T06:10:02;100139.14;;;6.91;68.94
49779;BME280;36217;60.232;24.776;2022-10-04T06:12:43;100135.89;;;7.02;68.67
49779;BME280;36217;60.232;24.776;2022-10-04T06:15:55;100133.97;;;6.89;69.28
49779;BME280;36217;60.232;24.776;2022-10-04T06:18:34;100132.25;;;7.20;68.82
49779;BME280;36217;60.232;24.776;2022-10-04T06:21:15;100150.13;;;7.09;68.34
49779;BME280;36217;60.232;24.776;2022-10-04T06:23:50;100137.18;;;7.17;68.77
49779;BME280;36217;60.232;24.776;2022-10-04T06:26:21;100148.80;;;6.79;69.43
49779;BME280;36217;60.232;24.776;2022-10-04T06:28:51;100149.34;;;6.88;69.07
49779;BME280;36217;60.232;24.776;2022-10-04T06:32:04;100147.20;;;7.13;68.41
49779;BME280;36217;60.232;24.776;2022-10-04T06:34:57;100155.85;;;7.43;67.60
49779;BME280;36217;60.232;24.776;2022-10-04T06:37:48;100147.56;;;7.32;67.91
49779;BME280;36217;60.232;24.776;2022-10-04T06:40:35;100141.04;;;7.32;67.78
49779;BME280;36217;60.232;24.776;2022-10-04T06:43:17;100139.26;;;7.31;68.16
49779;BME280;36217;60.232;24.776;2022-10-04T06:46:01;100146.26;;;7.57;67.40
49779;BME280;36217;60.232;24.776;2022-10-04T06:48:46;100147.02;;;7.49;67.53
49779;BME280;36217;60.232;24.776;2022-10-04T06:51:39;100145.37;;;7.52;68.15
49779;BME280;36217;60.232;24.776;2022-10-04T06:54:23;100142.33;;;7.23;68.55
49779;BME280;36217;60.232;24.776;2022-10-04T06:57:16;100148.04;;;7.55;68.45
49779;BME280;36217;60.232;24.776;2022-10-04T07:00:01;100152.84;;;7.38;69.00
49779;BME280;36217;60.232;24.776;2022-10-04T07:02:34;100145.12;;;7.94;67.79
49779;BME280;36217;60.232;24.776;2022-10-04T07:05:14;100141.25;;;7.38;68.91
49779;BME280;36217;60.232;24.776;2022-10-04T07:07:46;100145.70;;;7.43;67.98
49779;BME280;36217;60.232;24.776;2022-10-04T07:10:23;100145.85;;;7.37;68.24
49779;BME280;36217;60.232;24.776;2022-10-04T07:13:05;100150.07;;;7.43;67.98
49779;BME280;36217;60.232;24.776;2022-10-04T07:15:44;100144.19;;;7.56;69.15
49779;BME280;36217;60.232;24.776;2022-10-04T07:18:17;100144.19;;;6.94;69.07
49779;BME280;36217;60.232;24.776;2022-10-04T07:20:47;100152.04;;;7.47;68.23
49779;BME280;36217;60.232;24.776;2022-10-04T07:23:21;100149.14;;;7.97;67.97
49779;BME280;36217;60.232;24.776;2022-10-04T07:25:53;100154.87;;;7.74;67.99
49779;BME280;36217;60.232;24.776;2022-10-04T07:28:26;100143.49;;;7.74;67.98
49779;BME280;36217;60.232;24.776;2022-10-04T07:30:57;100153.68;;;7.66;68.22
49779;BME280;36217;60.232;24.776;2022-10-04T07:33:28;100146.19;;;7.80;67.30
49779;BME280;36217;60.232;24.776;2022-10-04T07:36:04;100152.51;;;8.09;66.94
49779;BME280;36217;60.232;24.776;2022-10-04T07:38:36;100151.13;;;7.76;67.09
49779;BME280;36217;60.232;24.776;2022-10-04T07:41:11;100150.58;;;7.85;67.00
49779;BME280;36217;60.232;24.776;2022-10-04T07:43:50;100151.48;;;7.88;67.15
49779;BME280;36217;60.232;24.776;2022-10-04T07:46:34;100162.61;;;7.63;67.43
49779;BME280;36217;60.232;24.776;2022-10-04T07:49:16;100164.73;;;8.26;66.65
49779;BME280;36217;60.232;24.776;2022-10-04T07:51:58;100158.19;;;8.14;66.93
49779;BME280;36217;60.232;24.776;2022-10-04T07:54:32;100160.77;;;8.32;65.69
49779;BME280;36217;60.232;24.776;2022-10-04T07:57:07;100164.34;;;8.00;66.75
49779;BME280;36217;60.232;24.776;2022-10-04T07:59:46;100165.84;;;7.93;67.09
49779;BME280;36217;60.232;24.776;2022-10-04T08:02:21;100169.04;;;7.72;67.04
49779;BME280;36217;60.232;24.776;2022-10-04T08:05:03;100174.81;;;7.97;65.67
49779;BME280;36217;60.232;24.776;2022-10-04T08:07:46;100167.44;;;8.23;66.25
49779;BME280;36217;60.232;24.776;2022-10-04T08:10:25;100173.60;;;8.27;65.37
49779;BME280;36217;60.232;24.776;2022-10-04T08:13:01;100178.10;;;8.26;65.25
49779;BME280;36217;60.232;24.776;2022-10-04T08:15:35;100184.35;;;7.79;67.48
49779;BME280;36217;60.232;24.776;2022-10-04T08:18:16;100180.37;;;7.93;66.41
49779;BME280;36217;60.232;24.776;2022-10-04T08:20:49;100185.63;;;8.62;65.18
49779;BME280;36217;60.232;24.776;2022-10-04T08:23:33;100196.95;;;8.26;66.14
49779;BME280;36217;60.232;24.776;2022-10-04T08:26:13;100191.13;;;8.17;65.57
49779;BME280;36217;60.232;24.776;2022-10-04T08:28:48;100195.48;;;7.36;67.37
49779;BME280;36217;60.232;24.776;2022-10-04T08:31:30;100203.45;;;8.14;65.27
49779;BME280;36217;60.232;24.776;2022-10-04T08:34:16;100199.21;;;8.40;65.87
49779;BME280;36217;60.232;24.776;2022-10-04T08:36:58;100203.88;;;7.94;65.66
49779;BME280;36217;60.232;24.776;2022-10-04T08:39:46;100206.91;;;9.00;63.38
49779;BME280;36217;60.232;24.776;2022-10-04T08:42:35;100208.01;;;8.32;63.79
49779;BME280;36217;60.232;24.776;2022-10-04T08:45:29;100217.36;;;8.59;63.86
49779;BME280;36217;60.232;24.776;2022-10-04T08:48:30;100212.00;;;8.79;64.65
49779;BME280;36217;60.232;24.776;2022-10-04T08:51:38;100205.50;;;8.68;62.75
49779;BME280;36217;60.232;24.776;2022-10-04T08:54:26;100199.59;;;8.58;63.89
49779;BME280;36217;60.232;24.776;2022-10-04T08:57:04;100204.02;;;8.91;62.69
49779;BME280;36217;60.232;24.776;2022-10-04T08:59:59;100207.97;;;8.68;63.41
49779;BME280;36217;60.232;24.776;2022-10-04T09:02:43;100206.77;;;8.97;62.69
49779;BME280;36217;60.232;24.776;2022-10-04T09:05:28;100212.70;;;8.93;62.16
49779;BME280;36217;60.232;24.776;2022-10-04T09:10:34;100220.91;;;9.10;62.64
49779;BME280;36217;60.232;24.776;2022-10-04T09:13:15;100213.37;;;8.91;62.79
49779;BME280;36217;60.232;24.776;2022-10-04T09:15:50;100231.57;;;8.93;62.27
49779;BME280;36217;60.232;24.776;2022-10-04T09:18:23;100223.86;;;8.74;63.26
49779;BME280;36217;60.232;24.776;2022-10-04T09:20:55;100230.39;;;9.59;60.92
49779;BME280;36217;60.232;24.776;2022-10-04T09:23:48;100236.05;;;8.45;62.80
49779;BME280;36217;60.232;24.776;2022-10-04T09:26:32;100235.34;;;8.79;62.52
49779;BME280;36217;60.232;24.776;2022-10-04T09:29:25;100236.36;;;9.01;62.66
49779;BME280;36217;60.232;24.776;2022-10-04T09:32:15;100233.51;;;9.09;61.71
49779;BME280;36217;60.232;24.776;2022-10-04T09:35:01;100233.83;;;9.00;61.96
49779;BME280;36217;60.232;24.776;2022-10-04T09:37:43;100242.96;;;8.94;63.01
49779;BME280;36217;60.232;24.776;2022-10-04T09:40:42;100246.87;;;8.55;63.33
49779;BME280;36217;60.232;24.776;2022-10-04T09:43:33;100253.90;;;9.15;62.15
49779;BME280;36217;60.232;24.776;2022-10-04T09:46:19;100252.41;;;8.96;62.50
49779;BME280;36217;60.232;24.776;2022-10-04T09:48:59;100262.38;;;9.64;62.54
49779;BME280;36217;60.232;24.776;2022-10-04T09:52:14;100290.86;;;9.17;62.57
49779;BME280;36217;60.232;24.776;2022-10-04T09:55:04;100270.85;;;9.18;62.37
49779;BME280;36217;60.232;24.776;2022-10-04T09:57:46;100269.61;;;9.17;62.37
49779;BME280;36217;60.232;24.776;2022-10-04T10:00:21;100273.12;;;9.51;62.05
49779;BME280;36217;60.232;24.776;2022-10-04T10:03:07;100287.14;;;8.50;63.82
49779;BME280;36217;60.232;24.776;2022-10-04T10:05:52;100274.58;;;8.65;63.42
49779;BME280;36217;60.232;24.776;2022-10-04T10:08:28;100283.40;;;8.74;62.75
49779;BME280;36217;60.232;24.776;2022-10-04T10:11:09;100287.26;;;9.47;61.52
49779;BME280;36217;60.232;24.776;2022-10-04T10:14:02;100282.45;;;9.42;61.14
49779;BME280;36217;60.232;24.776;2022-10-04T10:16:43;100284.52;;;9.51;61.22
49779;BME280;36217;60.232;24.776;2022-10-04T10:19:37;100294.72;;;9.32;61.00
49779;BME280;36217;60.232;24.776;2022-10-04T10:22:24;100296.24;;;9.62;60.05
49779;BME280;36217;60.232;24.776;2022-10-04T10:25:06;100297.51;;;9.24;61.08
49779;BME280;36217;60.232;24.776;2022-10-04T10:27:47;100313.34;;;9.36;61.44
49779;BME280;36217;60.232;24.776;2022-10-04T10:30:22;100311.76;;;8.99;61.49
49779;BME280;36217;60.232;24.776;2022-10-04T10:35:25;100310.73;;;9.59;60.84
49779;BME280;36217;60.232;24.776;2022-10-04T10:38:14;100305.74;;;9.95;59.65
49779;BME280;36217;60.232;24.776;2022-10-04T10:41:01;100311.36;;;9.55;60.74
49779;BME280;36217;60.232;24.776;2022-10-04T10:43:39;100314.49;;;9.45;60.85
49779;BME280;36217;60.232;24.776;2022-10-04T10:46:19;100309.26;;;9.59;60.17
49779;BME280;36217;60.232;24.776;2022-10-04T10:49:09;100310.30;;;9.03;61.62
49779;BME280;36217;60.232;24.776;2022-10-04T10:52:03;100327.81;;;9.33;61.04
49779;BME280;36217;60.232;24.776;2022-10-04T10:54:57;100337.29;;;9.48;60.99
49779;BME280;36217;60.232;24.776;2022-10-04T10:57:51;100327.73;;;8.94;62.47
49779;BME280;36217;60.232;24.776;2022-10-04T11:00:33;100333.98;;;9.82;60.29
49779;BME280;36217;60.232;24.776;2022-10-04T11:03:22;100329.91;;;9.39;60.67
49779;BME280;36217;60.232;24.776;2022-10-04T11:06:11;100331.46;;;9.79;60.48
49779;BME280;36217;60.232;24.776;2022-10-04T11:09:21;100340.98;;;9.89;59.96
49779;BME280;36217;60.232;24.776;2022-10-04T11:12:41;100336.11;;;9.56;59.55
49779;BME280;36217;60.232;24.776;2022-10-04T11:15:39;100337.54;;;10.08;59.32
49779;BME280;36217;60.232;24.776;2022-10-04T11:18:42;100352.13;;;10.00;59.92
49779;BME280;36217;60.232;24.776;2022-10-04T11:25:16;100344.87;;;9.59;60.03
49779;BME280;36217;60.232;24.776;2022-10-04T11:27:53;100344.40;;;9.73;60.53
49779;BME280;36217;60.232;24.776;2022-10-04T11:30:33;100351.90;;;9.64;59.97
49779;BME280;36217;60.232;24.776;2022-10-04T11:33:30;100352.26;;;9.29;60.59
49779;BME280;36217;60.232;24.776;2022-10-04T11:36:15;100355.91;;;9.20;60.83
49779;BME280;36217;60.232;24.776;2022-10-04T11:38:56;100362.56;;;9.43;60.60
49779;BME280;36217;60.232;24.776;2022-10-04T11:41:35;100361.69;;;9.48;60.67
49779;BME280;36217;60.232;24.776;2022-10-04T11:44:38;100351.98;;;9.34;61.82
49779;BME280;36217;60.232;24.776;2022-10-04T11:47:25;100364.79;;;8.85;62.09
49779;BME280;36217;60.232;24.776;2022-10-04T11:50:07;100371.90;;;9.33;61.50
49779;BME280;36217;60.232;24.776;2022-10-04T11:55:16;100373.89;;;9.52;61.21
49779;BME280;36217;60.232;24.776;2022-10-04T11:57:49;100369.54;;;9.80;61.26
49779;BME280;36217;60.232;24.776;2022-10-04T12:00:18;100369.84;;;10.09;60.27
49779;BME280;36217;60.232;24.776;2022-10-04T12:03:31;100378.48;;;9.58;61.13
49779;BME280;36217;60.232;24.776;2022-10-04T12:06:12;100378.69;;;9.85;61.06
49779;BME280;36217;60.232;24.776;2022-10-04T12:08:52;100387.28;;;9.98;60.99
49779;BME280;36217;60.232;24.776;2022-10-04T12:11:36;100402.53;;;10.05;60.71
49779;BME280;36217;60.232;24.776;2022-10-04T12:14:11;100400.56;;;9.79;61.27
49779;BME280;36217;60.232;24.776;2022-10-04T12:16:54;100400.49;;;8.85;62.38
49779;BME280;36217;60.232;24.776;2022-10-04T12:19:53;100407.84;;;9.87;61.36
49779;BME280;36217;60.232;24.776;2022-10-04T12:22:36;100405.62;;;9.32;61.91
49779;BME280;36217;60.232;24.776;2022-10-04T12:25:27;100411.45;;;9.46;61.05
49779;BME280;36217;60.232;24.776;2022-10-04T12:28:08;100422.90;;;9.69;61.66
49779;BME280;36217;60.232;24.776;2022-10-04T12:31:00;100405.57;;;9.49;61.42
49779;BME280;36217;60.232;24.776;2022-10-04T12:33:34;100409.61;;;9.34;61.67
49779;BME280;36217;60.232;24.776;2022-10-04T12:36:18;100411.39;;;9.18;62.83
49779;BME280;36217;60.232;24.776;2022-10-04T12:39:02;100413.93;;;9.78;61.09
49779;BME280;36217;60.232;24.776;2022-10-04T12:41:42;100422.23;;;9.38;61.45
49779;BME280;36217;60.232;24.776;2022-10-04T12:44:21;100419.25;;;9.65;61.43
49779;BME280;36217;60.232;24.776;2022-10-04T12:46:58;100427.58;;;9.67;60.87
49779;BME280;36217;60.232;24.776;2022-10-04T12:49:39;100427.09;;;9.39;61.45
49779;BME280;36217;60.232;24.776;2022-10-04T12:52:15;100429.46;;;9.52;61.09
49779;BME280;36217;60.232;24.776;2022-10-04T12:54:44;100443.47;;;9.42;61.03
49779;BME280;36217;60.232;24.776;2022-10-04T12:57:38;100439.73;;;9.98;59.94
49779;BME280;36217;60.232;24.776;2022-10-04T13:00:18;100445.46;;;9.66;60.85
49779;BME280;36217;60.232;24.776;2022-10-04T13:03:17;100453.59;;;9.54;60.64
49779;BME280;36217;60.232;24.776;2022-10-04T13:05:57;100447.39;;;9.50;61.49
49779;BME280;36217;60.232;24.776;2022-10-04T13:08:40;100451.68;;;9.60;61.10
49779;BME280;36217;60.232;24.776;2022-10-04T13:11:23;100450.59;;;9.38;61.05
49779;BME280;36217;60.232;24.776;2022-10-04T13:14:39;100462.05;;;9.34;61.41
49779;BME280;36217;60.232;24.776;2022-10-04T13:17:22;100458.05;;;9.52;60.89
49779;BME280;36217;60.232;24.776;2022-10-04T13:19:59;100455.05;;;9.14;61.27
49779;BME280;36217;60.232;24.776;2022-10-04T13:22:33;100471.46;;;9.51;61.41
49779;BME280;36217;60.232;24.776;2022-10-04T13:25:39;100471.27;;;9.44;61.11
49779;BME280;36217;60.232;24.776;2022-10-04T13:28:19;100472.98;;;9.35;61.37
49779;BME280;36217;60.232;24.776;2022-10-04T13:30:54;100470.29;;;9.49;61.65
49779;BME280;36217;60.232;24.776;2022-10-04T13:33:38;100474.26;;;8.98;62.51
49779;BME280;36217;60.232;24.776;2022-10-04T13:36:12;100466.48;;;8.70;62.98
49779;BME280;36217;60.232;24.776;2022-10-04T13:39:03;100497.71;;;9.38;62.14
49779;BME280;36217;60.232;24.776;2022-10-04T13:41:45;100489.00;;;9.38;61.82
49779;BME280;36217;60.232;24.776;2022-10-04T13:44:28;100484.27;;;9.12;61.71
49779;BME280;36217;60.232;24.776;2022-10-04T13:47:11;100478.33;;;8.84;62.48
49779;BME280;36217;60.232;24.776;2022-10-04T13:49:58;100476.16;;;9.17;61.66
49779;BME280;36217;60.232;24.776;2022-10-04T13:52:40;100477.76;;;9.17;62.07
49779;BME280;36217;60.232;24.776;2022-10-04T13:55:22;100489.50;;;9.21;62.41
49779;BME280;36217;60.232;24.776;2022-10-04T13:57:58;100482.14;;;8.59;63.35
49779;BME280;36217;60.232;24.776;2022-10-04T14:00:44;100474.42;;;9.01;62.05
49779;BME280;36217;60.232;24.776;2022-10-04T14:03:31;100467.87;;;9.36;61.71